Forside
METAR-TAF:

METAR-TAF

Lufthavne :

Fond Du Lac County Airport

Fond du Lac, Wisconsin, USA

Breddekreds: 43-46-12N, længdekreds: 088-29-11W, højde: 246 m

Aktuelle vejr

Denne rapport blev lavet for 30 minutter siden, kl. 13:53 UTC
Vind 12 kt fra nord
Temperatur 1°C
Fugtighed 86%
Tryk 1020 hPa
Sigt: 4.8 km
Spredte skyer i en højde af 600 ft
Overskyet i en højde af 1300 ft
let sne, dis

METAR: KFLD 311353Z AUTO 01012KT 3SM -SN BR SCT006 OVC013 01/M01 A3011 RMK AO2 SNB07 SLP203 P0000 T00111006

Tid: 09:23 (14:23 UTC)


TAF: fraværende

Vejrobservationer og prognoser fra mere end 4000 lufthavne (METAR og TAF).

De gule og røde prikker repræsenterer de meteorologiske stationer.

Flyt musen over at se navnet på stationen.

Så klik over at se vejr observationer og prognoser.

At skifte det kort: Klik på de grønne knapper med et sort kors for at zoome ind; på den grønne knap med en bindestreg for at zoome ud; eller på de grønne pile for tilstødende kort.


METAR-TAF: